createdAt,value
2023-01-13T00:01:14.696Z,47.50
2023-01-13T00:04:00.456Z,37.70
2023-01-13T00:06:45.046Z,35.60
2023-01-13T00:09:30.216Z,37.50
2023-01-13T00:12:15.125Z,38.22
2023-01-13T00:15:00.002Z,34.00
2023-01-13T00:17:45.164Z,31.73
2023-01-13T00:20:30.095Z,32.42
2023-01-13T00:26:02.753Z,36.13
2023-01-13T00:28:47.951Z,37.30
2023-01-13T00:31:32.637Z,35.80
2023-01-13T00:34:17.350Z,38.45
2023-01-13T00:39:46.951Z,36.28
2023-01-13T00:42:50.237Z,41.90
2023-01-13T00:45:35.187Z,35.03
2023-01-13T00:51:14.305Z,34.17
2023-01-13T00:53:59.116Z,42.05
2023-01-13T00:59:28.609Z,42.80
2023-01-13T01:02:13.271Z,49.60
2023-01-13T01:04:59.401Z,48.38
2023-01-13T01:07:44.074Z,37.70
2023-01-13T01:10:29.180Z,40.10
2023-01-13T01:13:16.691Z,42.83
2023-01-13T01:16:10.127Z,32.00
2023-01-13T01:18:55.798Z,32.78
2023-01-13T01:21:40.741Z,37.65
2023-01-13T01:27:10.166Z,30.95
2023-01-13T01:29:55.395Z,32.10
2023-01-13T01:32:40.237Z,26.00
2023-01-13T01:38:09.707Z,27.88
2023-01-13T01:40:54.661Z,33.15
2023-01-13T01:43:58.728Z,31.05
2023-01-13T01:46:44.556Z,30.90
2023-01-13T01:49:36.457Z,34.90
2023-01-13T01:52:35.473Z,28.98
2023-01-13T01:55:23.793Z,28.17
2023-01-13T01:58:14.890Z,32.53
2023-01-13T02:00:59.782Z,29.65
2023-01-13T02:06:32.072Z,30.90
2023-01-13T02:12:21.070Z,32.70
2023-01-13T02:15:12.677Z,31.00
2023-01-13T02:18:37.009Z,30.10
2023-01-13T02:21:50.335Z,32.47
2023-01-13T02:25:09.447Z,32.13
2023-01-13T02:28:31.871Z,32.90
2023-01-13T02:31:35.724Z,24.70
2023-01-13T02:34:32.771Z,33.33
2023-01-13T02:37:28.106Z,30.13
2023-01-13T02:40:28.631Z,33.80
2023-01-13T02:43:41.226Z,31.67
2023-01-13T02:46:34.192Z,31.50
2023-01-13T02:49:43.367Z,35.22
2023-01-13T02:52:42.997Z,30.55
2023-01-13T02:55:36.927Z,35.58
2023-01-13T02:58:28.187Z,31.33
2023-01-13T03:01:13.396Z,35.72
2023-01-13T03:07:03.007Z,31.50
2023-01-13T03:10:10.796Z,32.25
2023-01-13T03:13:20.475Z,34.47
2023-01-13T03:16:11.419Z,36.65
2023-01-13T03:18:59.585Z,33.88
2023-01-13T03:22:16.878Z,33.40
2023-01-13T03:25:13.186Z,39.85
2023-01-13T03:28:03.425Z,42.88
2023-01-13T03:30:54.208Z,41.03
2023-01-13T03:33:45.129Z,33.50
2023-01-13T03:36:33.868Z,33.50
2023-01-13T03:39:27.946Z,42.42
2023-01-13T03:42:25.508Z,40.67
2023-01-13T03:48:00.777Z,39.13
2023-01-13T03:50:50.141Z,41.65
2023-01-13T03:53:56.008Z,37.28
2023-01-13T03:56:43.271Z,42.05
2023-01-13T03:59:36.958Z,42.00
2023-01-13T04:02:44.821Z,45.13
2023-01-13T04:05:33.007Z,45.35
2023-01-13T04:08:25.180Z,41.58
2023-01-13T04:11:22.905Z,41.42
2023-01-13T04:14:09.997Z,45.00
2023-01-13T04:16:55.147Z,41.70
2023-01-13T04:22:24.308Z,39.17
2023-01-13T04:27:54.190Z,42.90
2023-01-13T04:30:39.772Z,37.15
2023-01-13T04:33:24.563Z,34.00
2023-01-13T04:38:54.564Z,45.17
2023-01-13T04:41:57.560Z,43.20
2023-01-13T04:44:42.399Z,42.47
2023-01-13T04:47:27.378Z,43.20
2023-01-13T04:50:12.285Z,42.10
2023-01-13T04:52:56.992Z,45.03
2023-01-13T04:55:43.653Z,46.90
2023-01-13T04:58:28.455Z,49.33
2023-01-13T05:01:13.377Z,44.35
2023-01-13T05:03:58.448Z,42.17
2023-01-13T05:06:42.978Z,42.22
2023-01-13T05:09:27.863Z,44.17
2023-01-13T05:12:31.435Z,43.30
2023-01-13T05:15:34.690Z,44.15
2023-01-13T05:18:19.998Z,47.45
2023-01-13T05:21:25.209Z,46.90
2023-01-13T05:24:28.541Z,38.30
2023-01-13T05:27:13.493Z,41.40
2023-01-13T05:29:58.686Z,41.78
2023-01-13T05:32:43.270Z,47.80
2023-01-13T05:35:28.648Z,46.35
2023-01-13T05:38:13.860Z,41.80
2023-01-13T05:41:18.297Z,39.03
2023-01-13T05:44:03.356Z,40.42
2023-01-13T05:46:48.472Z,38.55
2023-01-13T05:52:18.067Z,35.35
2023-01-13T05:57:47.668Z,42.95
2023-01-13T06:03:21.652Z,35.08
2023-01-13T06:06:08.180Z,35.45
2023-01-13T06:08:52.987Z,44.13
2023-01-13T06:11:37.556Z,41.67
2023-01-13T06:14:22.530Z,39.20
2023-01-13T06:19:53.114Z,31.42
2023-01-13T06:22:43.339Z,36.95
2023-01-13T06:25:28.413Z,34.92
2023-01-13T06:28:13.035Z,38.58
2023-01-13T06:33:52.999Z,30.60
2023-01-13T06:36:44.010Z,29.05
2023-01-13T06:39:30.556Z,35.53
2023-01-13T06:42:33.690Z,33.05
2023-01-13T06:45:18.738Z,35.30
2023-01-13T06:50:48.114Z,29.88
2023-01-13T06:53:33.151Z,30.23
2023-01-13T06:56:17.989Z,37.17
2023-01-13T07:01:47.680Z,27.88
2023-01-13T07:07:17.005Z,35.20
2023-01-13T07:10:02.736Z,40.33
2023-01-13T07:13:07.493Z,33.75
2023-01-13T07:15:57.059Z,36.85
2023-01-13T07:18:43.515Z,38.10
2023-01-13T07:21:29.251Z,36.65
2023-01-13T07:24:14.365Z,33.25
2023-01-13T07:29:44.101Z,39.10
2023-01-13T07:32:32.438Z,37.80
2023-01-13T07:35:22.391Z,37.38
2023-01-13T07:38:07.815Z,38.72
2023-01-13T10:52:30.061Z,43.42
2023-01-13T10:55:27.208Z,43.78
2023-01-13T10:58:13.526Z,41.65
2023-01-13T11:01:01.955Z,44.05
2023-01-13T11:03:47.624Z,42.03
2023-01-13T11:06:34.840Z,35.20
2023-01-13T11:09:22.031Z,39.60
2023-01-13T11:12:31.008Z,32.13
2023-01-13T11:15:21.425Z,39.67
2023-01-13T11:18:14.720Z,35.72
2023-01-13T11:21:01.108Z,43.97
2023-01-13T11:23:53.926Z,39.53
2023-01-13T11:26:53.085Z,41.08
2023-01-13T11:29:50.482Z,42.05
2023-01-13T11:32:47.712Z,43.22
2023-01-13T11:35:40.071Z,42.55
2023-01-13T11:38:45.515Z,50.58
2023-01-13T11:41:47.179Z,40.53
2023-01-13T11:44:41.200Z,45.00
2023-01-13T11:47:27.451Z,45.40
2023-01-13T11:50:33.920Z,46.50
2023-01-13T11:53:38.000Z,47.53
2023-01-13T12:02:15.876Z,50.03
2023-01-13T12:05:18.773Z,48.42
2023-01-13T12:08:37.851Z,55.42
2023-01-13T12:12:06.580Z,49.20
2023-01-13T12:15:19.253Z,52.70
2023-01-13T12:18:12.755Z,54.80
2023-01-13T12:21:08.470Z,59.17
2023-01-13T12:24:10.392Z,55.72
2023-01-13T12:26:59.982Z,57.03
2023-01-13T12:29:48.347Z,50.95
2023-01-13T12:32:37.518Z,46.30
2023-01-13T12:35:39.420Z,48.00
2023-01-13T12:38:37.118Z,41.70
2023-01-13T12:44:17.551Z,45.95
2023-01-13T12:47:02.855Z,47.13
2023-01-13T12:52:45.090Z,48.53
2023-01-13T12:58:27.600Z,45.45
2023-01-13T13:01:14.557Z,45.20
2023-01-13T13:04:48.035Z,49.17
2023-01-13T13:07:44.733Z,45.38
2023-01-13T13:10:31.349Z,50.17
2023-01-13T13:13:47.034Z,54.15
2023-01-13T13:16:35.552Z,64.57
2023-01-13T13:19:20.710Z,59.70
2023-01-13T13:22:09.296Z,57.58
2023-01-13T13:24:54.522Z,50.25
2023-01-13T13:27:49.487Z,57.65
2023-01-13T13:30:38.805Z,64.05
2023-01-13T13:33:26.672Z,70.35
2023-01-13T13:36:26.315Z,63.45
2023-01-13T13:39:49.242Z,45.60
2023-01-13T13:43:07.323Z,47.30
2023-01-13T13:46:10.745Z,50.83
2023-01-13T13:48:55.601Z,53.83
2023-01-13T13:54:51.508Z,57.60
2023-01-13T13:57:39.822Z,49.10
2023-01-13T14:00:30.247Z,39.13
2023-01-13T14:03:26.239Z,44.78
2023-01-13T14:06:24.035Z,55.47
2023-01-13T14:09:17.236Z,48.75
2023-01-13T14:12:06.131Z,46.20
2023-01-13T14:14:52.106Z,54.78
2023-01-13T14:17:38.029Z,52.05
2023-01-13T14:20:23.148Z,43.47
2023-01-13T14:23:17.041Z,45.38
2023-01-13T14:26:08.232Z,48.15
2023-01-13T14:28:55.228Z,56.03
2023-01-13T14:31:40.499Z,56.65
2023-01-13T14:34:31.279Z,54.03
2023-01-13T14:37:25.031Z,50.83
2023-01-13T14:40:43.990Z,54.30
2023-01-13T14:43:28.902Z,58.95
2023-01-13T14:46:15.057Z,59.60
2023-01-13T14:49:01.272Z,55.50
2023-01-13T14:51:46.341Z,59.30
2023-01-13T14:54:48.067Z,41.38
2023-01-13T14:57:34.224Z,50.22
2023-01-13T15:00:21.601Z,47.67
2023-01-13T15:03:07.521Z,59.63
2023-01-13T15:05:52.968Z,81.63
2023-01-13T15:08:39.255Z,79.15
2023-01-13T15:11:28.128Z,80.40
2023-01-13T15:14:24.865Z,80.72
2023-01-13T15:17:16.084Z,84.20
2023-01-13T15:20:00.930Z,66.65
2023-01-13T15:22:46.862Z,63.08
2023-01-13T15:25:32.855Z,55.80
2023-01-13T15:28:26.334Z,57.95
2023-01-13T15:31:11.115Z,63.08
2023-01-13T15:33:58.090Z,64.13
2023-01-13T15:36:43.411Z,68.07
2023-01-13T15:42:31.462Z,50.80
2023-01-13T15:45:34.881Z,53.72
2023-01-13T15:48:21.840Z,53.28
2023-01-13T15:51:06.572Z,65.65
2023-01-13T15:56:36.639Z,59.03
2023-01-13T15:59:25.746Z,61.00
2023-01-13T16:02:15.418Z,60.75
2023-01-13T16:05:00.418Z,64.15
2023-01-13T16:07:45.591Z,55.22
2023-01-13T16:13:16.513Z,42.72
2023-01-13T16:16:01.395Z,46.70
2023-01-13T16:18:46.459Z,59.65
2023-01-13T16:21:31.104Z,50.97
2023-01-13T16:27:00.911Z,43.30
2023-01-13T16:32:31.203Z,43.20
2023-01-13T16:35:18.280Z,41.13
2023-01-13T16:38:03.271Z,44.15
2023-01-13T16:40:48.321Z,53.90
2023-01-13T16:46:19.588Z,53.83
2023-01-13T16:49:05.690Z,49.17
2023-01-13T16:51:50.730Z,47.75
2023-01-13T16:54:35.760Z,45.53
2023-01-13T17:00:06.337Z,58.45
2023-01-13T17:07:02.430Z,69.07
2023-01-13T17:09:47.763Z,55.30
2023-01-13T17:12:33.435Z,51.25
2023-01-13T17:15:19.363Z,83.72
2023-01-13T17:18:04.734Z,82.55
2023-01-13T17:23:34.659Z,62.22
2023-01-13T17:29:14.518Z,48.03
2023-01-13T17:32:00.628Z,58.20
2023-01-13T17:34:46.153Z,63.30
2023-01-13T17:37:31.125Z,51.65
2023-01-13T17:40:17.324Z,74.40
2023-01-13T17:43:02.482Z,80.35
2023-01-13T17:45:47.586Z,53.92
2023-01-13T17:51:18.373Z,48.88
2023-01-13T17:54:04.500Z,52.95
2023-01-13T17:56:51.005Z,76.40
2023-01-13T17:59:36.651Z,75.22
2023-01-13T18:02:24.406Z,57.67
2023-01-13T18:05:09.925Z,47.25
2023-01-13T18:07:55.343Z,46.42
2023-01-13T18:10:40.520Z,42.58
2023-01-13T18:13:26.030Z,47.35
2023-01-13T18:16:12.927Z,47.08
2023-01-13T18:19:18.064Z,51.00
2023-01-13T18:22:23.946Z,39.60
2023-01-13T18:25:32.366Z,43.78
2023-01-13T18:28:17.341Z,40.03
2023-01-13T18:31:02.884Z,50.47
2023-01-13T18:33:47.921Z,53.45
2023-01-13T18:39:18.300Z,43.63
2023-01-13T18:45:08.250Z,44.10
2023-01-13T18:47:56.993Z,42.30
2023-01-13T18:50:41.686Z,42.65
2023-01-13T18:53:26.496Z,45.17
2023-01-13T18:56:12.671Z,50.72
2023-01-13T18:58:58.064Z,50.85
2023-01-13T19:01:43.475Z,49.10
2023-01-13T19:04:28.782Z,46.83
2023-01-13T19:07:21.609Z,54.17
2023-01-13T19:10:09.102Z,39.35
2023-01-13T19:12:53.799Z,48.08
2023-01-13T19:18:23.439Z,55.45
2023-01-13T19:23:54.163Z,40.67
2023-01-13T19:26:38.623Z,44.00
2023-01-13T19:32:08.494Z,50.95
2023-01-13T19:34:54.462Z,52.95
2023-01-13T19:37:39.719Z,41.63
2023-01-13T19:40:24.812Z,50.85
2023-01-13T19:43:28.026Z,50.90
2023-01-13T19:46:13.406Z,43.97
2023-01-13T19:51:42.458Z,48.30
2023-01-13T19:54:27.322Z,45.40
2023-01-13T19:59:57.708Z,50.65
2023-01-13T20:02:48.388Z,49.17
2023-01-13T20:05:33.373Z,47.15
2023-01-13T20:11:21.502Z,47.28
2023-01-13T20:14:06.262Z,44.90
2023-01-13T20:16:51.165Z,51.55
2023-01-13T20:22:20.675Z,48.80
2023-01-13T20:27:50.474Z,49.85
2023-01-13T20:30:35.278Z,41.58
2023-01-13T20:33:19.921Z,57.78
2023-01-13T20:38:50.201Z,50.15
2023-01-13T20:44:38.806Z,50.55
2023-01-13T20:47:23.854Z,54.20
2023-01-13T20:52:53.534Z,54.10
2023-01-13T20:55:39.344Z,54.53
2023-01-13T20:58:24.329Z,60.72
2023-01-13T21:03:57.659Z,56.03
2023-01-13T21:06:42.652Z,58.17
2023-01-13T21:09:27.429Z,60.08
2023-01-13T21:12:35.138Z,46.33
2023-01-13T21:15:21.242Z,52.65
2023-01-13T21:18:24.783Z,48.40
2023-01-13T21:21:12.693Z,45.60
2023-01-13T21:23:57.741Z,48.72
2023-01-13T21:26:42.628Z,51.33
2023-01-13T21:29:27.638Z,52.63
2023-01-13T21:34:58.364Z,59.88
2023-01-13T21:37:43.611Z,52.78
2023-01-13T21:40:28.467Z,54.65
2023-01-13T21:43:31.788Z,49.10
2023-01-13T21:46:35.074Z,47.55
2023-01-13T21:49:19.832Z,56.83
2023-01-13T21:52:04.704Z,48.92
2023-01-13T21:55:08.229Z,63.97
2023-01-13T21:58:11.089Z,54.42
2023-01-13T22:00:56.064Z,53.63
2023-01-13T22:03:59.154Z,57.67
2023-01-13T22:06:44.001Z,55.03
2023-01-13T22:09:29.904Z,51.28
2023-01-13T22:12:17.315Z,56.75
2023-01-13T22:15:02.274Z,60.53
2023-01-13T22:20:33.769Z,50.80
2023-01-13T22:23:20.729Z,51.70
2023-01-13T22:26:07.139Z,55.33
2023-01-13T22:28:51.960Z,55.58
2023-01-13T22:34:22.722Z,45.47
2023-01-13T22:39:52.686Z,41.35
2023-01-13T22:42:39.454Z,49.33
2023-01-13T22:45:24.506Z,44.60
2023-01-13T22:48:09.506Z,52.47
2023-01-13T22:50:54.674Z,48.40
2023-01-13T22:53:40.780Z,45.80
2023-01-13T22:56:26.335Z,47.80
2023-01-13T22:59:12.796Z,45.22
2023-01-13T23:01:57.349Z,57.30
2023-01-13T23:07:27.441Z,42.63
2023-01-13T23:10:12.253Z,48.38
2023-01-13T23:12:57.098Z,45.90
2023-01-13T23:15:42.099Z,45.67
2023-01-13T23:21:15.011Z,43.42
2023-01-13T23:24:00.093Z,41.90
2023-01-13T23:29:29.922Z,43.85
2023-01-13T23:32:14.841Z,43.83
2023-01-13T23:34:59.763Z,46.83
2023-01-13T23:40:29.214Z,43.85
2023-01-13T23:43:13.720Z,44.60
2023-01-13T23:46:02.750Z,46.38
2023-01-13T23:48:48.846Z,51.45
2023-01-13T23:51:33.761Z,53.75
2023-01-13T23:54:18.876Z,54.42
2023-01-13T23:57:03.866Z,54.55
